createdAt,value
2019-06-20T00:00:53.588Z,0.00
2019-06-20T00:01:53.580Z,0.00
2019-06-20T00:02:53.573Z,0.00
2019-06-20T00:03:53.565Z,0.00
2019-06-20T00:04:53.558Z,0.00
2019-06-20T00:05:53.551Z,0.00
2019-06-20T00:06:53.547Z,0.00
2019-06-20T00:07:53.534Z,0.00
2019-06-20T00:08:53.527Z,0.00
2019-06-20T00:09:53.519Z,0.00
2019-06-20T00:10:53.512Z,0.00
2019-06-20T00:11:53.508Z,0.00
2019-06-20T00:13:00.597Z,0.00
2019-06-20T00:13:53.490Z,0.00
2019-06-20T00:14:53.484Z,0.00
2019-06-20T00:15:53.476Z,0.00
2019-06-20T00:16:53.467Z,0.00
2019-06-20T00:17:53.459Z,0.00
2019-06-20T00:18:53.450Z,0.00
2019-06-20T00:19:53.444Z,0.00
2019-06-20T00:20:53.436Z,0.00
2019-06-20T00:21:53.427Z,0.00
2019-06-20T00:22:53.419Z,0.00
2019-06-20T00:23:53.411Z,0.00
2019-06-20T00:24:53.405Z,0.00
2019-06-20T00:25:53.396Z,0.00
2019-06-20T00:26:53.390Z,0.00
2019-06-20T00:27:53.382Z,0.00
2019-06-20T00:28:53.374Z,0.00
2019-06-20T00:29:53.369Z,0.00
2019-06-20T00:30:53.360Z,0.00
2019-06-20T00:31:53.349Z,0.00
2019-06-20T00:32:53.342Z,0.00
2019-06-20T00:33:53.347Z,0.00
2019-06-20T00:34:53.326Z,0.00
2019-06-20T00:35:53.318Z,0.00
2019-06-20T00:36:53.312Z,0.00
2019-06-20T00:37:53.304Z,0.00
2019-06-20T00:38:53.296Z,0.00
2019-06-20T00:39:53.287Z,0.00
2019-06-20T00:40:53.281Z,0.00
2019-06-20T00:41:53.274Z,0.00
2019-06-20T00:42:53.264Z,0.00
2019-06-20T00:43:53.259Z,0.00
2019-06-20T00:44:53.249Z,0.00
2019-06-20T00:45:53.245Z,0.00
2019-06-20T00:46:53.235Z,0.00
2019-06-20T00:47:53.226Z,0.00
2019-06-20T00:48:53.217Z,0.00
2019-06-20T00:49:53.211Z,0.00
2019-06-20T00:50:53.201Z,0.00
2019-06-20T00:51:53.203Z,0.00
2019-06-20T00:52:53.186Z,0.00
2019-06-20T00:53:53.189Z,0.00
2019-06-20T00:54:53.183Z,0.00
2019-06-20T00:55:53.166Z,0.00
2019-06-20T00:56:53.155Z,0.00
2019-06-20T00:57:53.147Z,0.00
2019-06-20T00:58:53.143Z,0.00
2019-06-20T00:59:53.133Z,0.00
2019-06-20T01:00:53.124Z,0.00
2019-06-20T01:01:53.119Z,0.00
2019-06-20T01:02:53.110Z,0.00
2019-06-20T01:03:53.102Z,0.00
2019-06-20T01:04:53.095Z,0.00
2019-06-20T01:05:53.085Z,0.00
2019-06-20T01:06:53.081Z,0.00
2019-06-20T01:07:53.071Z,0.00
2019-06-20T01:08:53.066Z,0.00
2019-06-20T01:09:53.055Z,0.00
2019-06-20T01:10:53.046Z,0.00
2019-06-20T01:11:53.040Z,0.00
2019-06-20T01:12:53.040Z,0.00
2019-06-20T01:13:53.097Z,0.00
2019-06-20T01:14:53.017Z,0.00
2019-06-20T01:15:53.022Z,0.00
2019-06-20T01:16:53.001Z,0.00
2019-06-20T01:17:52.997Z,0.00
2019-06-20T01:18:52.986Z,0.00
2019-06-20T01:19:52.978Z,0.00
2019-06-20T01:20:52.972Z,0.00
2019-06-20T01:21:52.966Z,0.00
2019-06-20T01:22:52.967Z,0.00
2019-06-20T01:23:52.948Z,0.00
2019-06-20T01:24:52.941Z,0.00
2019-06-20T01:25:52.934Z,0.00
2019-06-20T01:26:52.926Z,0.00
2019-06-20T01:27:52.918Z,0.00
2019-06-20T01:28:52.912Z,0.00
2019-06-20T01:29:52.904Z,0.00
2019-06-20T01:30:52.896Z,0.00
2019-06-20T01:31:52.888Z,0.00
2019-06-20T01:32:52.881Z,0.00
2019-06-20T01:33:52.874Z,0.00
2019-06-20T01:34:52.866Z,0.00
2019-06-20T01:35:52.859Z,0.00
2019-06-20T01:36:52.851Z,0.00
2019-06-20T01:37:52.844Z,0.00
2019-06-20T01:38:52.836Z,0.00
2019-06-20T01:39:52.893Z,0.00
2019-06-20T01:40:52.822Z,0.00
2019-06-20T01:41:52.816Z,0.00
2019-06-20T01:42:52.806Z,0.00
2019-06-20T01:43:52.800Z,0.00
2019-06-20T01:44:52.791Z,0.00
2019-06-20T01:45:52.784Z,0.00
2019-06-20T01:46:52.777Z,0.00
2019-06-20T01:47:52.776Z,0.00
2019-06-20T01:48:52.763Z,0.00
2019-06-20T01:49:52.754Z,0.00
2019-06-20T01:50:52.746Z,0.00
2019-06-20T01:51:52.740Z,0.00
2019-06-20T01:52:52.732Z,0.00
2019-06-20T01:53:52.724Z,0.00
2019-06-20T01:54:52.717Z,0.00
2019-06-20T01:55:52.710Z,0.00
2019-06-20T01:56:52.701Z,0.00
2019-06-20T01:57:52.693Z,0.00
2019-06-20T01:58:52.688Z,0.00
2019-06-20T01:59:52.680Z,0.00
2019-06-20T02:00:52.676Z,0.00
2019-06-20T02:01:52.672Z,0.00
2019-06-20T02:02:52.660Z,0.00
2019-06-20T02:03:52.649Z,0.00
2019-06-20T02:04:52.646Z,0.00
2019-06-20T02:05:52.636Z,0.00
2019-06-20T02:06:52.630Z,0.00
2019-06-20T02:07:52.619Z,0.00
2019-06-20T02:08:52.612Z,0.00
2019-06-20T02:09:52.608Z,0.00
2019-06-20T02:10:52.599Z,0.00
2019-06-20T02:11:52.589Z,0.00
2019-06-20T02:12:52.582Z,0.00
2019-06-20T02:14:06.386Z,0.00
2019-06-20T02:14:52.566Z,0.00
2019-06-20T02:15:52.559Z,0.00
2019-06-20T02:16:52.554Z,0.00
2019-06-20T02:17:52.547Z,0.00
2019-06-20T02:18:52.541Z,0.00
2019-06-20T02:19:52.530Z,0.00
2019-06-20T02:20:52.522Z,0.00
2019-06-20T02:21:52.546Z,0.00
2019-06-20T02:22:52.507Z,0.00
2019-06-20T02:23:52.500Z,0.00
2019-06-20T02:24:52.493Z,0.00
2019-06-20T02:25:52.485Z,0.00
2019-06-20T02:26:52.478Z,0.00
2019-06-20T02:27:52.519Z,0.00
2019-06-20T02:28:52.473Z,0.00
2019-06-20T02:29:52.456Z,0.00
2019-06-20T02:30:52.451Z,0.00
2019-06-20T02:31:52.457Z,0.00
2019-06-20T02:32:52.438Z,0.00
2019-06-20T02:33:52.427Z,0.00
2019-06-20T02:34:52.420Z,0.00
2019-06-20T02:35:52.414Z,0.00
2019-06-20T02:36:52.409Z,0.00
2019-06-20T02:37:52.399Z,0.00
2019-06-20T02:38:52.395Z,0.00
2019-06-20T02:39:52.384Z,0.00
2019-06-20T02:40:52.382Z,0.00
2019-06-20T02:41:52.369Z,0.00
2019-06-20T02:42:52.364Z,0.00
2019-06-20T02:43:52.355Z,0.00
2019-06-20T02:44:52.347Z,0.00
2019-06-20T02:45:52.341Z,0.00
2019-06-20T02:46:52.332Z,0.00
2019-06-20T02:47:52.327Z,0.00
2019-06-20T02:48:52.319Z,0.00
2019-06-20T02:49:52.311Z,4.00
2019-06-20T02:50:52.303Z,4.00
2019-06-20T02:51:52.295Z,4.00
2019-06-20T02:52:52.288Z,4.00
2019-06-20T02:53:52.289Z,4.00
2019-06-20T02:54:52.272Z,4.00
2019-06-20T02:55:52.265Z,4.00
2019-06-20T02:56:52.259Z,4.00
2019-06-20T02:57:52.253Z,4.00
2019-06-20T02:58:52.244Z,4.00
2019-06-20T02:59:52.236Z,8.00
2019-06-20T03:00:52.232Z,8.00
2019-06-20T03:01:52.223Z,8.00
2019-06-20T03:02:52.214Z,12.00
2019-06-20T03:03:52.208Z,8.00
2019-06-20T03:04:52.200Z,12.00
2019-06-20T03:05:52.193Z,16.00
2019-06-20T03:06:52.189Z,12.00
2019-06-20T03:07:52.180Z,16.00
2019-06-20T03:08:52.174Z,16.00
2019-06-20T03:09:52.171Z,24.00
2019-06-20T03:10:52.156Z,28.00
2019-06-20T03:11:52.214Z,32.00
2019-06-20T03:12:52.150Z,32.00
2019-06-20T03:13:52.133Z,32.00
2019-06-20T03:14:52.126Z,32.00
2019-06-20T03:15:52.118Z,32.00
2019-06-20T03:16:52.115Z,44.00
2019-06-20T03:17:52.104Z,52.00
2019-06-20T03:18:52.096Z,68.00
2019-06-20T03:19:52.089Z,72.00
2019-06-20T03:20:52.091Z,60.00
2019-06-20T03:21:52.105Z,72.00
2019-06-20T03:22:52.066Z,68.00
2019-06-20T03:23:52.066Z,72.00
2019-06-20T03:24:52.052Z,84.00
2019-06-20T03:25:52.046Z,96.00
2019-06-20T03:26:52.037Z,124.00
2019-06-20T03:27:52.031Z,164.00
2019-06-20T03:28:52.023Z,184.00
2019-06-20T03:29:52.019Z,188.00
2019-06-20T03:30:52.013Z,200.00
2019-06-20T03:31:52.002Z,216.00
2019-06-20T03:32:51.995Z,240.00
2019-06-20T03:33:51.986Z,252.00
2019-06-20T03:34:51.980Z,272.00
2019-06-20T03:35:51.970Z,284.00
2019-06-20T03:36:51.962Z,300.00
2019-06-20T03:37:51.957Z,316.00
2019-06-20T03:38:51.947Z,340.00
2019-06-20T03:39:51.951Z,352.00
2019-06-20T03:40:51.933Z,372.00
2019-06-20T03:41:51.925Z,376.00
2019-06-20T03:42:51.918Z,400.00
2019-06-20T03:43:51.911Z,420.00
2019-06-20T03:45:01.692Z,436.00
2019-06-20T03:45:51.894Z,456.00
2019-06-20T03:46:51.886Z,484.00
2019-06-20T03:47:51.883Z,508.00
2019-06-20T03:48:51.871Z,512.00
2019-06-20T03:49:51.864Z,528.00
2019-06-20T03:50:51.863Z,580.00
2019-06-20T03:51:51.875Z,700.00
2019-06-20T03:52:51.841Z,744.00
2019-06-20T03:53:51.836Z,720.00
2019-06-20T03:54:51.825Z,688.00
2019-06-20T03:55:51.818Z,664.00
2019-06-20T03:56:51.810Z,668.00
2019-06-20T03:57:51.804Z,696.00
2019-06-20T03:58:51.794Z,712.00
2019-06-20T03:59:51.787Z,696.00
2019-06-20T04:00:51.781Z,712.00
2019-06-20T04:01:51.774Z,868.00
2019-06-20T04:02:51.766Z,876.00
2019-06-20T04:03:51.756Z,716.00
2019-06-20T04:04:51.753Z,544.00
2019-06-20T04:05:51.742Z,628.00
2019-06-20T04:06:51.746Z,788.00
2019-06-20T04:07:51.729Z,804.00
2019-06-20T04:08:51.718Z,996.00
2019-06-20T04:09:51.711Z,984.00
2019-06-20T04:10:51.703Z,976.00
2019-06-20T04:11:51.697Z,1208.00
2019-06-20T04:12:51.689Z,1188.00
2019-06-20T04:13:51.681Z,1168.00
2019-06-20T04:14:51.672Z,1336.00
2019-06-20T04:15:51.676Z,1472.00
2019-06-20T04:16:51.658Z,1492.00
2019-06-20T04:17:51.653Z,1572.00
2019-06-20T04:18:51.642Z,1600.00
2019-06-20T04:19:51.635Z,1724.00
2019-06-20T04:20:51.627Z,1776.00
2019-06-20T04:21:51.622Z,1712.00
2019-06-20T04:22:51.611Z,1624.00
2019-06-20T04:23:51.605Z,1840.00
2019-06-20T04:24:51.598Z,1712.00
2019-06-20T04:25:51.590Z,1900.00
2019-06-20T04:26:51.581Z,2112.00
2019-06-20T04:27:51.575Z,2256.00
2019-06-20T04:28:51.567Z,2352.00
2019-06-20T04:29:51.561Z,2296.00
2019-06-20T04:30:51.553Z,2104.00
2019-06-20T04:31:51.552Z,2016.00
2019-06-20T04:32:51.544Z,2188.00
2019-06-20T04:33:51.533Z,1968.00
2019-06-20T04:34:51.522Z,1812.00
2019-06-20T04:35:51.519Z,1960.00
2019-06-20T04:36:51.508Z,2472.00
2019-06-20T04:37:51.501Z,2520.00
2019-06-20T04:38:51.496Z,2400.00
2019-06-20T04:39:51.500Z,3508.00
2019-06-20T04:40:51.478Z,2520.00
2019-06-20T04:41:51.471Z,2056.00
2019-06-20T04:42:51.463Z,2388.00
2019-06-20T04:43:51.458Z,2428.00
2019-06-20T04:44:51.451Z,2304.00
2019-06-20T04:45:51.441Z,2400.00
2019-06-20T04:46:51.432Z,2820.00
2019-06-20T04:47:51.434Z,3136.00
2019-06-20T04:48:51.419Z,3012.00
2019-06-20T04:49:51.411Z,2840.00
2019-06-20T04:50:51.403Z,2856.00
2019-06-20T04:51:51.399Z,2792.00
2019-06-20T04:52:51.390Z,2832.00
2019-06-20T04:53:51.381Z,2504.00
2019-06-20T04:54:51.375Z,1796.00
2019-06-20T04:55:51.374Z,1356.00
2019-06-20T04:56:51.361Z,1512.00
2019-06-20T04:57:51.352Z,1512.00
2019-06-20T04:58:51.345Z,1184.00
2019-06-20T04:59:51.337Z,1152.00
2019-06-20T05:00:51.330Z,1592.00
2019-06-20T05:01:51.322Z,1604.00
2019-06-20T05:02:51.315Z,2204.00
2019-06-20T05:03:51.325Z,2716.00
2019-06-20T05:04:51.302Z,3056.00
2019-06-20T05:05:51.292Z,3328.00
2019-06-20T05:06:51.285Z,3916.00
2019-06-20T05:07:51.276Z,3864.00
2019-06-20T05:08:51.270Z,3644.00
2019-06-20T05:09:51.263Z,3932.00
2019-06-20T05:10:51.254Z,4388.00
2019-06-20T05:11:51.248Z,4104.00
2019-06-20T05:12:51.245Z,4232.00
2019-06-20T05:13:51.234Z,4852.00
2019-06-20T05:14:51.230Z,4212.00
2019-06-20T05:15:52.926Z,4076.00
2019-06-20T05:16:51.210Z,2920.00
2019-06-20T05:17:51.365Z,3700.00
2019-06-20T05:18:51.198Z,2820.00
2019-06-20T05:19:51.191Z,2852.00
2019-06-20T05:20:51.181Z,3536.00
2019-06-20T05:21:51.190Z,3332.00
2019-06-20T05:22:51.166Z,3728.00
2019-06-20T05:23:51.159Z,3700.00
2019-06-20T05:24:51.152Z,5148.00
2019-06-20T05:25:51.146Z,4896.00
2019-06-20T05:26:51.147Z,5776.00
2019-06-20T05:27:51.130Z,5504.00
2019-06-20T05:28:51.125Z,4228.00
2019-06-20T05:29:51.116Z,3512.00
2019-06-20T05:30:51.109Z,3080.00
2019-06-20T05:31:51.102Z,4068.00
2019-06-20T05:32:51.096Z,4092.00
2019-06-20T05:33:51.088Z,3472.00
2019-06-20T05:34:51.082Z,3628.00
2019-06-20T05:35:51.074Z,3756.00
2019-06-20T05:36:51.069Z,3564.00
2019-06-20T05:37:51.059Z,3464.00
2019-06-20T05:38:51.052Z,3064.00
2019-06-20T05:39:51.048Z,3416.00
2019-06-20T05:40:51.042Z,3720.00
2019-06-20T05:41:51.031Z,4372.00
2019-06-20T05:42:51.023Z,4088.00
2019-06-20T05:43:51.016Z,4228.00
2019-06-20T05:44:51.009Z,4204.00
2019-06-20T05:45:51.002Z,4772.00
2019-06-20T05:46:50.995Z,5388.00
2019-06-20T05:47:50.987Z,5100.00
2019-06-20T05:48:50.986Z,5784.00
2019-06-20T05:49:50.974Z,6404.00
2019-06-20T05:50:50.965Z,7320.00
2019-06-20T05:51:51.011Z,8044.00
2019-06-20T05:52:50.953Z,8204.00
2019-06-20T05:53:50.946Z,8276.00
2019-06-20T05:54:50.938Z,8588.00
2019-06-20T05:55:50.930Z,8292.00
2019-06-20T05:56:50.944Z,7108.00
2019-06-20T05:57:50.917Z,5868.00
2019-06-20T05:58:50.909Z,6700.00
2019-06-20T05:59:50.905Z,7228.00
2019-06-20T06:00:50.897Z,6936.00
2019-06-20T06:01:50.890Z,5728.00
2019-06-20T06:02:50.887Z,6064.00
2019-06-20T06:03:51.324Z,6328.00
2019-06-20T06:04:50.872Z,6184.00
2019-06-20T06:05:50.863Z,7176.00
2019-06-20T06:06:50.934Z,7592.00
2019-06-20T06:07:50.849Z,8008.00
2019-06-20T06:08:51.893Z,8560.00
2019-06-20T06:09:50.837Z,8996.00
2019-06-20T06:10:50.833Z,9256.00
2019-06-20T06:11:51.951Z,9424.00
2019-06-20T06:12:50.817Z,9432.00
2019-06-20T06:13:50.810Z,9616.00
2019-06-20T06:14:50.802Z,9548.00
2019-06-20T06:15:50.798Z,8972.00
2019-06-20T06:16:50.789Z,9132.00
2019-06-20T06:17:50.798Z,8936.00
2019-06-20T06:18:50.777Z,8992.00
2019-06-20T06:19:50.834Z,9396.00
2019-06-20T06:20:50.766Z,9960.00
2019-06-20T06:21:50.759Z,10388.00
2019-06-20T06:22:50.750Z,10480.00
2019-06-20T06:23:50.759Z,10252.00
2019-06-20T06:24:50.759Z,9976.00
2019-06-20T06:25:50.740Z,9652.00
2019-06-20T06:26:50.727Z,9396.00
2019-06-20T06:27:50.720Z,9280.00
2019-06-20T06:28:50.715Z,9576.00
2019-06-20T06:29:50.713Z,10236.00
2019-06-20T06:30:50.706Z,10920.00
2019-06-20T06:31:50.697Z,11280.00
2019-06-20T06:32:50.695Z,11524.00
2019-06-20T06:33:50.685Z,11888.00
2019-06-20T06:34:50.680Z,12348.00
2019-06-20T06:35:50.673Z,12884.00
2019-06-20T06:36:50.668Z,13380.00
2019-06-20T06:37:50.685Z,13856.00
2019-06-20T06:38:50.655Z,14012.00
2019-06-20T06:39:50.650Z,13672.00
2019-06-20T06:40:50.644Z,12088.00
2019-06-20T06:41:50.639Z,10176.00
2019-06-20T06:42:50.634Z,9092.00
2019-06-20T06:43:50.628Z,7888.00
2019-06-20T06:44:50.623Z,6728.00
2019-06-20T06:45:50.618Z,8096.00
2019-06-20T06:46:55.463Z,9576.00
2019-06-20T06:47:50.608Z,10172.00
2019-06-20T06:48:50.603Z,10112.00
2019-06-20T06:49:50.598Z,10280.00
2019-06-20T06:50:50.589Z,11036.00
2019-06-20T06:51:50.586Z,10708.00
2019-06-20T06:52:50.581Z,10672.00
2019-06-20T06:53:50.576Z,12808.00
2019-06-20T06:54:50.568Z,15888.00
2019-06-20T06:55:50.563Z,16088.00
2019-06-20T06:56:50.558Z,14968.00
2019-06-20T06:57:50.662Z,15832.00
2019-06-20T06:58:50.547Z,16832.00
2019-06-20T06:59:50.542Z,16396.00
2019-06-20T07:00:50.537Z,16928.00
2019-06-20T07:01:50.537Z,15512.00
2019-06-20T07:02:50.529Z,15048.00
2019-06-20T07:03:50.525Z,14380.00
2019-06-20T07:04:50.519Z,13336.00
2019-06-20T07:05:50.513Z,14112.00
2019-06-20T07:06:50.507Z,13956.00
2019-06-20T07:07:50.509Z,12580.00
2019-06-20T07:08:50.499Z,10536.00
2019-06-20T07:09:50.494Z,8528.00
2019-06-20T07:10:50.491Z,9824.00
2019-06-20T07:11:50.484Z,13532.00
2019-06-20T07:12:50.479Z,27808.00
2019-06-20T07:13:50.475Z,31296.00
2019-06-20T07:14:50.471Z,14276.00
2019-06-20T07:15:50.469Z,31136.00
2019-06-20T07:16:59.688Z,17824.00
2019-06-20T07:17:50.455Z,23968.00
2019-06-20T07:18:50.463Z,24384.00
2019-06-20T07:19:50.449Z,20480.00
2019-06-20T07:20:50.444Z,19072.00
2019-06-20T07:21:50.440Z,24064.00
2019-06-20T07:22:50.438Z,49408.00
2019-06-20T07:23:50.431Z,62912.00
2019-06-20T07:24:50.429Z,67552.00
2019-06-20T07:25:50.424Z,67968.00
2019-06-20T07:26:50.421Z,20672.00
2019-06-20T07:27:50.420Z,28320.00
2019-06-20T07:28:51.615Z,24128.00
2019-06-20T07:29:50.414Z,48800.00
2019-06-20T07:30:50.409Z,17216.00
2019-06-20T07:31:50.417Z,16864.00
2019-06-20T07:32:50.406Z,17088.00
2019-06-20T07:33:50.403Z,19072.00
2019-06-20T07:34:50.401Z,33152.00
2019-06-20T07:35:50.396Z,23968.00
2019-06-20T07:36:50.394Z,48256.00
2019-06-20T07:37:50.399Z,15264.00
2019-06-20T07:38:50.419Z,14048.00
2019-06-20T07:39:50.387Z,49984.00
2019-06-20T07:40:50.402Z,14396.00
2019-06-20T07:41:50.389Z,13416.00
2019-06-20T07:42:50.382Z,17184.00
2019-06-20T07:43:50.417Z,20480.00
2019-06-20T07:44:50.383Z,91872.00
2019-06-20T07:46:02.183Z,78848.00
2019-06-20T07:46:50.371Z,22432.00
2019-06-20T07:47:50.379Z,17856.00
2019-06-20T07:48:50.386Z,17088.00
2019-06-20T07:49:50.369Z,19552.00
2019-06-20T07:50:50.363Z,25344.00
2019-06-20T07:51:50.370Z,21248.00
2019-06-20T07:53:01.357Z,82592.00
2019-06-20T07:53:50.382Z,59296.00
2019-06-20T07:54:50.358Z,15496.00
2019-06-20T07:55:50.358Z,11796.00
2019-06-20T07:56:50.356Z,11720.00
2019-06-20T07:57:50.357Z,13764.00
2019-06-20T07:58:50.351Z,13784.00
2019-06-20T07:59:50.349Z,70432.00
2019-06-20T08:00:50.348Z,6948.00
2019-06-20T08:01:50.346Z,5556.00
2019-06-20T08:02:50.343Z,5168.00
2019-06-20T08:03:50.349Z,6052.00
2019-06-20T08:04:50.339Z,7864.00
2019-06-20T08:05:50.339Z,8516.00
2019-06-20T08:06:50.333Z,10660.00
2019-06-20T08:07:50.335Z,13308.00
2019-06-20T08:08:50.330Z,16880.00
2019-06-20T08:09:50.325Z,86464.00
2019-06-20T08:10:50.322Z,101536.00
2019-06-20T08:11:50.320Z,106112.00
2019-06-20T08:12:50.316Z,103520.00
2019-06-20T08:13:50.315Z,41728.00
2019-06-20T08:14:50.315Z,36896.00
2019-06-20T08:15:50.315Z,27200.00
2019-06-20T08:16:50.315Z,21536.00
2019-06-20T08:17:50.312Z,37536.00
2019-06-20T08:18:50.311Z,40832.00
2019-06-20T08:19:50.328Z,34848.00
2019-06-20T08:20:50.315Z,36736.00
2019-06-20T08:21:50.311Z,31712.00
2019-06-20T08:22:50.316Z,32096.00
2019-06-20T08:23:50.311Z,29536.00
2019-06-20T08:24:50.314Z,26912.00
2019-06-20T08:25:50.311Z,35392.00
2019-06-20T08:26:50.334Z,42144.00
2019-06-20T08:27:50.311Z,40000.00
2019-06-20T08:29:07.104Z,58432.00
2019-06-20T08:29:50.311Z,87200.00
2019-06-20T08:30:50.312Z,95200.00
2019-06-20T08:31:50.315Z,95808.00
2019-06-20T08:32:50.315Z,91392.00
2019-06-20T08:33:50.317Z,79328.00
2019-06-20T08:34:50.329Z,59392.00
2019-06-20T08:35:50.323Z,81152.00
2019-06-20T08:36:50.327Z,90432.00
2019-06-20T08:37:50.331Z,86816.00
2019-06-20T08:38:50.335Z,75552.00
2019-06-20T08:39:50.342Z,63840.00
2019-06-20T08:40:50.346Z,75520.00
2019-06-20T08:41:50.360Z,48544.00
2019-06-20T08:42:50.357Z,53536.00
2019-06-20T08:43:50.362Z,40352.00
2019-06-20T08:44:50.368Z,45248.00
2019-06-20T08:45:50.375Z,58880.00
2019-06-20T08:46:50.378Z,72960.00
2019-06-20T08:47:50.383Z,67040.00
2019-06-20T08:48:50.389Z,34560.00
2019-06-20T08:49:50.394Z,29952.00
2019-06-20T08:50:50.401Z,78336.00
2019-06-20T08:51:50.407Z,80160.00
2019-06-20T08:52:50.410Z,75936.00
2019-06-20T08:53:50.420Z,87328.00
2019-06-20T08:54:50.421Z,90272.00
2019-06-20T08:55:50.447Z,79616.00
2019-06-20T08:56:50.436Z,74880.00
2019-06-20T08:57:50.448Z,47840.00
2019-06-20T08:58:50.449Z,40256.00
2019-06-20T08:59:50.457Z,32736.00
2019-06-20T09:00:50.462Z,29952.00
2019-06-20T09:01:50.467Z,23968.00
2019-06-20T09:02:50.472Z,20064.00
2019-06-20T09:03:50.523Z,16992.00
2019-06-20T09:04:50.484Z,14816.00
2019-06-20T09:05:50.488Z,14928.00
2019-06-20T09:06:50.497Z,15208.00
2019-06-20T09:07:50.504Z,15324.00
2019-06-20T09:08:50.501Z,17088.00
2019-06-20T09:09:50.500Z,18912.00
2019-06-20T09:10:50.502Z,19872.00
2019-06-20T09:11:50.505Z,21568.00
2019-06-20T09:12:50.518Z,22368.00
2019-06-20T09:13:50.510Z,22368.00
2019-06-20T09:14:50.511Z,24448.00
2019-06-20T09:15:50.513Z,30496.00
2019-06-20T09:16:50.513Z,27584.00
2019-06-20T09:17:50.546Z,21024.00
2019-06-20T09:18:53.211Z,19552.00
2019-06-20T09:19:51.661Z,23936.00
2019-06-20T09:20:52.744Z,24672.00
2019-06-20T09:21:52.594Z,24096.00
2019-06-20T09:22:50.517Z,48800.00
2019-06-20T09:23:52.387Z,31776.00
2019-06-20T09:24:50.517Z,39424.00
2019-06-20T09:25:50.928Z,70496.00
2019-06-20T09:26:51.195Z,52384.00
2019-06-20T09:27:52.686Z,30240.00
2019-06-20T09:28:51.040Z,23584.00
2019-06-20T09:29:51.578Z,33504.00
2019-06-20T09:30:51.889Z,42272.00
2019-06-20T09:31:52.480Z,33920.00
2019-06-20T09:32:52.219Z,22784.00
2019-06-20T09:33:52.124Z,23104.00
2019-06-20T09:34:51.823Z,30560.00
2019-06-20T09:35:52.147Z,24192.00
2019-06-20T09:36:52.024Z,22752.00
2019-06-20T09:37:50.865Z,18304.00
2019-06-20T09:38:50.650Z,14496.00
2019-06-20T09:39:51.743Z,15168.00
2019-06-20T09:40:51.894Z,9492.00
2019-06-20T09:41:51.635Z,5628.00
2019-06-20T09:42:51.691Z,3904.00
2019-06-20T09:43:51.551Z,3276.00
2019-06-20T09:44:52.349Z,4564.00
2019-06-20T09:45:51.354Z,7172.00
2019-06-20T09:46:51.158Z,8308.00
2019-06-20T09:47:52.042Z,8160.00
2019-06-20T09:48:51.088Z,7440.00
2019-06-20T09:49:53.474Z,7236.00
2019-06-20T09:50:51.637Z,7804.00
2019-06-20T09:51:50.515Z,8472.00
2019-06-20T09:52:51.596Z,8352.00
2019-06-20T09:53:51.794Z,7584.00
2019-06-20T09:54:51.641Z,6696.00
2019-06-20T09:55:51.651Z,5892.00
2019-06-20T09:56:53.507Z,4912.00
2019-06-20T09:57:51.901Z,4292.00
2019-06-20T09:58:51.145Z,4480.00
2019-06-20T10:00:02.718Z,4748.00
2019-06-20T10:00:50.859Z,4980.00
2019-06-20T10:01:51.455Z,5116.00
2019-06-20T10:02:52.115Z,5236.00
2019-06-20T10:03:50.601Z,5552.00
2019-06-20T10:04:50.709Z,5824.00
2019-06-20T10:05:50.734Z,5672.00
2019-06-20T10:06:50.463Z,5340.00
2019-06-20T10:07:50.558Z,4704.00
2019-06-20T10:08:50.457Z,4016.00
2019-06-20T10:09:50.452Z,3776.00
2019-06-20T10:10:51.052Z,3768.00
2019-06-20T10:11:51.840Z,3724.00
2019-06-20T10:12:51.667Z,3560.00
2019-06-20T10:13:50.440Z,3264.00
2019-06-20T10:14:51.510Z,2928.00
2019-06-20T10:15:51.501Z,2668.00
2019-06-20T10:16:52.218Z,2500.00
2019-06-20T10:17:50.414Z,2544.00
2019-06-20T10:18:50.410Z,2812.00
2019-06-20T10:19:50.422Z,3288.00
2019-06-20T10:20:51.128Z,3928.00
2019-06-20T10:21:51.848Z,4808.00
2019-06-20T10:22:50.978Z,5816.00
2019-06-20T10:23:51.853Z,6476.00
2019-06-20T10:24:51.302Z,7020.00
2019-06-20T10:25:51.520Z,7660.00
2019-06-20T10:26:51.530Z,8052.00
2019-06-20T10:27:51.380Z,8484.00
2019-06-20T10:28:51.433Z,9156.00
2019-06-20T10:29:51.075Z,10196.00
2019-06-20T10:30:51.086Z,11896.00
2019-06-20T10:31:50.834Z,13960.00
2019-06-20T10:32:51.016Z,16336.00
2019-06-20T10:33:50.910Z,19072.00
2019-06-20T10:34:50.642Z,20640.00
2019-06-20T10:35:50.421Z,20672.00
2019-06-20T10:36:50.329Z,19744.00
2019-06-20T10:37:50.482Z,18208.00
2019-06-20T10:38:50.445Z,16164.00
2019-06-20T10:39:50.317Z,14588.00
2019-06-20T10:40:50.315Z,13512.00
2019-06-20T10:41:50.402Z,13056.00
2019-06-20T10:42:50.368Z,11804.00
2019-06-20T10:43:51.654Z,10012.00
2019-06-20T10:44:50.321Z,8288.00
2019-06-20T10:45:50.299Z,6960.00
2019-06-20T10:46:51.437Z,6192.00
2019-06-20T10:47:50.922Z,5744.00
2019-06-20T10:48:50.287Z,5640.00
2019-06-20T10:49:50.442Z,5764.00
2019-06-20T10:50:50.279Z,5900.00
2019-06-20T10:51:50.279Z,5844.00
2019-06-20T10:52:51.724Z,5596.00
2019-06-20T10:53:51.419Z,5220.00
2019-06-20T10:54:51.416Z,4828.00
2019-06-20T10:55:51.169Z,4336.00
2019-06-20T10:56:51.036Z,3704.00
2019-06-20T10:57:51.728Z,2940.00
2019-06-20T10:58:50.709Z,2400.00
2019-06-20T10:59:50.911Z,2136.00
2019-06-20T11:00:50.473Z,1980.00
2019-06-20T11:01:50.718Z,1824.00
2019-06-20T11:02:51.266Z,1768.00
2019-06-20T11:03:50.227Z,1784.00
2019-06-20T11:04:50.223Z,1776.00
2019-06-20T11:05:50.219Z,1720.00
2019-06-20T11:06:50.224Z,1648.00
2019-06-20T11:07:50.229Z,1752.00
2019-06-20T11:08:50.203Z,2360.00
2019-06-20T11:09:50.198Z,3288.00
2019-06-20T11:10:50.199Z,3960.00
2019-06-20T11:11:50.187Z,4516.00
2019-06-20T11:12:55.663Z,5072.00
2019-06-20T11:13:50.182Z,5628.00
2019-06-20T11:14:50.200Z,6324.00
2019-06-20T11:15:50.219Z,7400.00
2019-06-20T11:16:50.162Z,8416.00
2019-06-20T11:17:50.157Z,9148.00
2019-06-20T11:18:50.163Z,9396.00
2019-06-20T11:19:50.148Z,8856.00
2019-06-20T11:20:50.146Z,8016.00
2019-06-20T11:21:50.138Z,7700.00
2019-06-20T11:22:50.135Z,8444.00
2019-06-20T11:23:50.128Z,9408.00
2019-06-20T11:24:50.123Z,9776.00
2019-06-20T11:25:50.137Z,10740.00
2019-06-20T11:26:50.115Z,13004.00
2019-06-20T11:27:50.120Z,15728.00
2019-06-20T11:28:50.107Z,17600.00
2019-06-20T11:29:50.100Z,19392.00
2019-06-20T11:30:58.092Z,21568.00
2019-06-20T11:31:50.091Z,24224.00
2019-06-20T11:32:50.087Z,26432.00
2019-06-20T11:33:50.087Z,25056.00
2019-06-20T11:34:50.083Z,22464.00
2019-06-20T11:35:50.074Z,21952.00
2019-06-20T11:36:50.085Z,21856.00
2019-06-20T11:37:50.069Z,22176.00
2019-06-20T11:38:50.063Z,23136.00
2019-06-20T11:39:51.348Z,24256.00
2019-06-20T11:40:50.058Z,21856.00
2019-06-20T11:41:50.056Z,20352.00
2019-06-20T11:42:50.051Z,18080.00
2019-06-20T11:43:50.048Z,15428.00
2019-06-20T11:44:50.046Z,13392.00
2019-06-20T11:45:50.045Z,12228.00
2019-06-20T11:46:50.040Z,11048.00
2019-06-20T11:47:50.040Z,9488.00
2019-06-20T11:48:50.034Z,8736.00
2019-06-20T11:49:50.037Z,8656.00
2019-06-20T11:50:50.051Z,9044.00
2019-06-20T11:51:50.023Z,10644.00
2019-06-20T11:52:50.026Z,12752.00
2019-06-20T11:53:50.016Z,14108.00
2019-06-20T11:54:50.072Z,14504.00
2019-06-20T11:55:50.016Z,14488.00
2019-06-20T11:56:50.009Z,14128.00
2019-06-20T11:57:50.010Z,12608.00
2019-06-20T11:58:50.001Z,11520.00
2019-06-20T11:59:49.994Z,9644.00
2019-06-20T12:01:03.248Z,8420.00
2019-06-20T12:01:51.231Z,9516.00
2019-06-20T12:02:50.317Z,11636.00
2019-06-20T12:03:49.977Z,11960.00
2019-06-20T12:04:49.974Z,13020.00
2019-06-20T12:05:49.969Z,15628.00
2019-06-20T12:06:49.964Z,17056.00
2019-06-20T12:07:50.238Z,18112.00
2019-06-20T12:08:49.957Z,18592.00
2019-06-20T12:09:51.122Z,17824.00
2019-06-20T12:10:49.947Z,15548.00
2019-06-20T12:11:49.944Z,13476.00
2019-06-20T12:12:49.938Z,12568.00
2019-06-20T12:13:49.935Z,12732.00
2019-06-20T12:14:49.930Z,13584.00
2019-06-20T12:15:49.935Z,15308.00
2019-06-20T12:16:49.922Z,17472.00
2019-06-20T12:17:49.956Z,19456.00